首页
METAR-TAF:

METAR-TAF

机场 :

Les Ajoncs

永河畔拉罗什, 法国

纬度: 46-42N, 经度: 001-23W, 海拔: 90米

当前天气观测

该预报发布于22分钟前的20:00 UTC
风速5节,风向东南
温度 8°C
湿度 100%
气压 1017 hPa
能见度10公里或以上
1500米以下无云,无积雨云

METAR: LFRI 292000Z AUTO 14005KT CAVOK 08/08 Q1017 NOSIG

时间: 21:22 (20:22 UTC)

预报

该预报发布于3小时和22分钟前的17:00 UTC
预报有效从29日的 18点(UTC)到 30日的 18点(UTC)
风速5节,风向
能见度10公里或以上
散云层高于2500英尺
散云层高于3500英尺
成为
从 29日的 22点(UTC)到 29日的 24点(UTC)
风速10节,风向
成为
从 30日的 00点(UTC)到 30日的 03点(UTC)
能見度: 4000
多云层高于800英尺
阴天层高于2000英尺
小雨
短暂存在
从 30日的 05点(UTC)到 30日的 08点(UTC)
能見度: 2000
阴天层高于300英尺
成为
从 30日的 08点(UTC)到 30日的 10点(UTC)
风速15节,风向西转西南,有时为25节阵风
成为
从 30日的 15点(UTC)到 30日的 18点(UTC)
风速10节,风向西转西南
短暂存在
从 30日的 16点(UTC)到 30日的 18点(UTC)
能見度: 2000
多云层高于200英尺
轻雾

TAF: LFRI 291700Z 2918/3018 19005KT 9999 SCT025 SCT035 BECMG 2922/2924 18010KT BECMG 3000/3003 4000 -RA BKN008 OVC020 TEMPO 3005/3008 2000 RA OVC003 BECMG 3008/3010 24015G25KT BECMG 3015/3018 24010KT TEMPO 3016/3018 2000 BR BKN002

超过4000个机场的气象观测和天气预报(METAR&TAF报告)。

可查询的气象台以黄色和红色小点在地图上表示。

将鼠标移到小点上方,可查看气象台名称。

然后点击查看天气观测和预报。

如需切换地图:点击带黑十字的绿色按钮放大地图;点击带横线的绿色按钮缩小地图;或者点击绿色箭头查看邻近地区的地图。


METAR-TAF: